Time;durP1;ratioP1;P1;durP2;ratioP2;P2;SDS_P1;SDS_P2;PMS_P1;PMS_P2;Temp;Humidity;BMP_temperature;BMP_pressure;BME280_temperature;BME280_humidity;BME280_pressure;Samples;Min_cycle;Max_cycle;Signal;HPM_P1;HPM_P2
2023/09/01 00:00:09;;;;;;;2.83;2.63;;;19.70;1.00;;;;;;6275245;22;20070;-76
2023/09/01 00:02:35;;;;;;;4.45;2.80;;;19.70;1.00;;;;;;6274716;22;20000;-76
2023/09/01 00:05:01;;;;;;;5.63;3.20;;;19.70;1.00;;;;;;6274712;22;20339;-76
2023/09/01 00:07:27;;;;;;;8.95;3.88;;;19.70;1.00;;;;;;6275108;22;20006;-76
2023/09/01 00:09:53;;;;;;;7.28;3.13;;;19.70;1.00;;;;;;6274949;22;20079;-76
2023/09/01 00:12:18;;;;;;;3.25;2.92;;;19.60;1.00;;;;;;6275121;22;20003;-76
2023/09/01 00:14:44;;;;;;;6.15;3.47;;;19.60;1.00;;;;;;6247636;22;20338;-77
2023/09/01 00:17:12;;;;;;;3.75;3.33;;;19.60;1.00;;;;;;6247893;22;20003;-76
2023/09/01 00:19:39;;;;;;;5.68;3.53;;;19.60;1.00;;;;;;6274786;22;20050;-76
2023/09/01 00:22:05;;;;;;;5.10;3.15;;;19.60;1.00;;;;;;6275048;22;20078;-76
2023/09/01 00:24:32;;;;;;;4.60;3.22;;;19.50;1.00;;;;;;6247584;22;20097;-76
2023/09/01 00:26:58;;;;;;;7.07;3.33;;;19.50;1.00;;;;;;6274954;22;20427;-76
2023/09/01 00:29:24;;;;;;;3.83;3.22;;;19.50;1.00;;;;;;6274695;22;20031;-76
2023/09/01 00:31:50;;;;;;;4.60;3.47;;;19.50;1.00;;;;;;6274833;22;20003;-76
2023/09/01 00:34:17;;;;;;;3.40;3.03;;;19.50;1.00;;;;;;6274612;22;20008;-76
2023/09/01 00:36:43;;;;;;;4.03;3.63;;;19.50;1.00;;;;;;6247269;22;20010;-76
2023/09/01 00:39:09;;;;;;;5.22;3.42;;;19.50;1.00;;;;;;6274836;22;19999;-76
2023/09/01 00:41:35;;;;;;;5.22;3.65;;;19.50;1.00;;;;;;6274525;22;20000;-76
2023/09/01 00:44:03;;;;;;;4.22;3.72;;;19.40;1.00;;;;;;6247449;22;20003;-76
2023/09/01 00:46:31;;;;;;;6.10;3.65;;;19.40;1.70;;;;;;6274569;22;20000;-76
2023/09/01 00:48:57;;;;;;;3.83;3.50;;;19.40;2.00;;;;;;6274533;22;20082;-76
2023/09/01 00:51:25;;;;;;;5.88;3.45;;;19.40;3.90;;;;;;6274389;22;20004;-76
2023/09/01 00:53:51;;;;;;;6.90;4.30;;;19.40;4.00;;;;;;6274578;22;20355;-76
2023/09/01 00:56:18;;;;;;;4.95;3.83;;;19.30;5.10;;;;;;6274288;22;20000;-76
2023/09/01 00:58:44;;;;;;;6.22;4.35;;;19.30;4.10;;;;;;6274639;22;20022;-76
2023/09/01 01:01:10;;;;;;;5.00;4.45;;;19.40;4.50;;;;;;6274466;22;19996;-76
2023/09/01 01:03:36;;;;;;;6.07;4.30;;;19.30;6.80;;;;;;6246964;22;20110;-76
2023/09/01 01:06:10;;;;;;;4.88;4.47;;;19.40;10.10;;;;;;6274200;22;20023;-76
2023/09/01 01:08:56;;;;;;;5.80;4.50;;;19.40;7.80;;;;;;6274337;22;20003;-76
2023/09/01 01:11:59;;;;;;;6.47;4.68;;;19.30;9.50;;;;;;6247403;22;20004;-76
2023/09/01 01:14:39;;;;;;;9.25;4.30;;;19.30;12.90;;;;;;6274385;22;20009;-76
2023/09/01 01:17:06;;;;;;;6.40;4.82;;;19.30;13.00;;;;;;6274461;22;20024;-76
2023/09/01 01:20:13;;;;;;;4.55;4.15;;;19.30;13.30;;;;;;6274519;22;20420;-76
2023/09/01 01:22:42;;;;;;;6.05;4.40;;;19.20;17.10;;;;;;6247296;22;20317;-76
2023/09/01 01:25:10;;;;;;;5.68;4.82;;;19.10;19.30;;;;;;6274201;22;19996;-76
2023/09/01 01:27:37;;;;;;;7.15;4.80;;;19.20;19.50;;;;;;6247222;22;20004;-77
2023/09/01 01:30:05;;;;;;;5.05;4.60;;;19.20;18.90;;;;;;6273893;22;20050;-76
2023/09/01 01:32:31;;;;;;;5.38;4.75;;;19.20;17.10;;;;;;6274087;22;20093;-76
2023/09/01 01:35:07;;;;;;;7.50;5.55;;;19.20;18.10;;;;;;6247037;22;20004;-76
2023/09/01 01:37:48;;;;;;;10.02;5.30;;;19.20;16.20;;;;;;6247098;22;20007;-76
2023/09/01 01:40:14;;;;;;;8.02;4.57;;;19.20;15.70;;;;;;6274348;22;20024;-76
2023/09/01 01:42:46;;;;;;;5.18;4.63;;;19.20;18.30;;;;;;6274117;22;20404;-76
2023/09/01 01:45:14;;;;;;;8.55;5.57;;;19.20;17.70;;;;;;6274087;22;20027;-76
2023/09/01 01:47:40;;;;;;;8.63;5.53;;;19.20;17.20;;;;;;6247281;22;20445;-76
2023/09/01 01:50:06;;;;;;;6.50;5.28;;;19.20;16.40;;;;;;6274260;22;20027;-76
2023/09/01 01:52:32;;;;;;;11.43;5.28;;;19.20;16.80;;;;;;6246903;22;20427;-76
2023/09/01 01:54:58;;;;;;;5.72;5.10;;;19.20;15.60;;;;;;6274254;22;19999;-76
2023/09/01 01:57:23;;;;;;;6.25;5.55;;;19.10;15.40;;;;;;6274095;22;20308;-76
2023/09/01 01:59:49;;;;;;;6.85;5.32;;;19.20;18.20;;;;;;6247034;22;20010;-77
2023/09/01 02:02:15;;;;;;;9.43;5.28;;;19.20;16.60;;;;;;6271288;22;19996;-76
2023/09/01 02:04:41;;;;;;;7.80;5.43;;;19.20;15.10;;;;;;6274317;22;20003;-76
2023/09/01 02:07:07;;;;;;;6.55;5.07;;;19.20;15.40;;;;;;6274009;22;20043;-76
2023/09/01 02:09:33;;;;;;;9.63;5.65;;;19.10;17.10;;;;;;6274176;22;20004;-76
2023/09/01 02:11:59;;;;;;;11.30;5.72;;;19.10;19.90;;;;;;6274188;22;20011;-76
2023/09/01 02:14:25;;;;;;;5.53;5.13;;;19.10;19.00;;;;;;6274326;22;20004;-76
2023/09/01 02:16:50;;;;;;;6.97;5.35;;;19.10;19.50;;;;;;6276138;22;20027;-76
2023/09/01 02:19:16;;;;;;;6.88;5.03;;;19.10;21.60;;;;;;6276073;22;20006;-76
2023/09/01 02:21:44;;;;;;;5.68;5.25;;;19.10;23.10;;;;;;6249042;22;19999;-76
2023/09/01 02:24:10;;;;;;;5.75;5.28;;;19.00;25.20;;;;;;6275676;22;20023;-76
2023/09/01 02:26:36;;;;;;;7.28;5.47;;;19.10;25.90;;;;;;6276093;22;20000;-76
2023/09/01 02:29:04;;;;;;;10.35;5.85;;;19.10;24.00;;;;;;6275856;22;20554;-76
2023/09/01 02:31:30;;;;;;;5.82;5.28;;;19.00;26.60;;;;;;6248943;22;20008;-77
2023/09/01 02:33:56;;;;;;;7.00;6.32;;;19.00;23.50;;;;;;6248635;22;20382;-76
2023/09/01 02:36:26;;;;;;;10.20;5.80;;;19.10;25.80;;;;;;6275870;22;20003;-76
2023/09/01 02:38:55;;;;;;;8.40;5.78;;;19.00;24.80;;;;;;6275754;22;20183;-76
2023/09/01 02:41:21;;;;;;;6.60;5.85;;;19.00;27.30;;;;;;6248645;22;20000;-77
2023/09/01 02:43:47;;;;;;;9.10;6.25;;;19.00;27.20;;;;;;6248433;22;20031;-76
2023/09/01 02:46:14;;;;;;;6.68;5.60;;;19.00;29.50;;;;;;6249243;22;20323;-76
2023/09/01 02:48:39;;;;;;;7.28;6.47;;;19.00;27.90;;;;;;6275645;22;20003;-76
2023/09/01 02:51:06;;;;;;;9.98;6.55;;;19.00;30.00;;;;;;6275823;22;20003;-76
2023/09/01 02:53:37;;;;;;;7.03;5.78;;;19.00;29.80;;;;;;6248381;22;20039;-77
2023/09/01 02:56:03;;;;;;;11.35;6.60;;;18.90;32.00;;;;;;6275559;22;20004;-76
2023/09/01 02:58:29;;;;;;;7.70;6.55;;;18.90;32.10;;;;;;6275088;22;20417;-78
2023/09/01 03:00:54;;;;;;;7.43;5.80;;;18.90;32.20;;;;;;6274304;22;20034;-79
2023/09/01 03:03:24;;;;;;;11.73;6.25;;;18.90;31.50;;;;;;6248532;22;19999;-78
2023/09/01 03:05:50;;;;;;;9.57;6.75;;;18.90;32.60;;;;;;6275229;22;20092;-78
2023/09/01 03:08:18;;;;;;;9.57;6.90;;;18.90;32.50;;;;;;6275698;22;20003;-79
2023/09/01 03:10:44;;;;;;;6.95;6.28;;;18.90;33.10;;;;;;6275360;22;20019;-78
2023/09/01 03:13:09;;;;;;;7.50;6.80;;;18.90;33.90;;;;;;6275483;22;20313;-78
2023/09/01 03:15:35;;;;;;;6.85;6.30;;;18.80;35.50;;;;;;6248050;22;20015;-78
2023/09/01 03:18:02;;;;;;;11.32;6.32;;;18.80;36.20;;;;;;6248361;22;20090;-78
2023/09/01 03:20:28;;;;;;;9.60;6.68;;;18.80;39.40;;;;;;6275432;22;20053;-78
2023/09/01 03:22:54;;;;;;;11.50;7.40;;;18.80;39.40;;;;;;6274839;22;20023;-79
2023/09/01 03:25:19;;;;;;;8.55;6.97;;;18.80;36.60;;;;;;6275274;22;20036;-78
2023/09/01 03:27:45;;;;;;;8.27;7.13;;;18.80;37.50;;;;;;6273323;22;20074;-79
2023/09/01 03:30:12;;;;;;;7.40;6.80;;;18.80;38.00;;;;;;6248592;22;20086;-78
2023/09/01 03:32:38;;;;;;;11.10;7.25;;;18.80;39.90;;;;;;6248281;22;20000;-78
2023/09/01 03:35:07;;;;;;;7.78;6.95;;;18.80;36.20;;;;;;6275590;22;20023;-79
2023/09/01 03:37:33;;;;;;;9.65;7.18;;;18.80;38.00;;;;;;6275095;22;20006;-78
2023/09/01 03:39:59;;;;;;;11.45;7.35;;;18.80;38.90;;;;;;6275578;22;20004;-79
2023/09/01 03:42:25;;;;;;;10.90;8.32;;;18.80;39.70;;;;;;6275277;22;20014;-78
2023/09/01 03:44:52;;;;;;;12.90;7.28;;;18.80;42.00;;;;;;6248474;22;20427;-79
2023/09/01 03:47:18;;;;;;;13.48;7.10;;;18.80;42.50;;;;;;6275342;22;20066;-79
2023/09/01 03:49:44;;;;;;;10.05;7.80;;;18.80;41.30;;;;;;6275412;22;20007;-78
2023/09/01 03:52:10;;;;;;;9.82;7.57;;;18.80;41.50;;;;;;6275046;22;20003;-79
2023/09/01 03:54:36;;;;;;;8.07;7.30;;;18.80;42.50;;;;;;6275170;22;20031;-79
2023/09/01 03:57:01;;;;;;;11.80;8.07;;;18.70;46.10;;;;;;6275625;22;20029;-78
2023/09/01 03:59:27;;;;;;;10.00;8.18;;;18.70;44.20;;;;;;6275907;22;20000;-78
2023/09/01 04:01:53;;;;;;;9.50;8.50;;;18.70;45.00;;;;;;6275969;22;20023;-79
2023/09/01 04:04:19;;;;;;;10.00;8.15;;;18.70;45.10;;;;;;6275297;22;20078;-78
2023/09/01 04:06:45;;;;;;;11.05;8.13;;;18.60;47.60;;;;;;6266239;22;20015;-78
2023/09/01 04:09:13;;;;;;;11.13;8.55;;;18.60;50.80;;;;;;6275381;22;20034;-78
2023/09/01 04:11:39;;;;;;;12.25;8.15;;;18.50;52.10;;;;;;6275212;22;20029;-78
2023/09/01 04:14:07;;;;;;;11.82;7.88;;;18.60;52.60;;;;;;6275044;22;20003;-78
2023/09/01 04:16:32;;;;;;;9.20;8.20;;;18.60;52.40;;;;;;6275128;22;20003;-78
2023/09/01 04:18:58;;;;;;;9.00;8.10;;;18.60;52.50;;;;;;6274915;22;20083;-79
2023/09/01 04:21:23;;;;;;;11.23;8.68;;;18.60;53.00;;;;;;6275010;22;20030;-78
2023/09/01 04:23:49;;;;;;;12.75;9.63;;;18.50;54.00;;;;;;6275161;22;20006;-78
2023/09/01 04:26:15;;;;;;;9.43;8.43;;;18.50;54.70;;;;;;6274748;22;20061;-78
2023/09/01 04:28:41;;;;;;;14.63;8.48;;;18.50;55.60;;;;;;6275056;22;20027;-78
2023/09/01 04:31:24;;;;;;;11.55;9.02;;;18.60;55.60;;;;;;6274809;22;20011;-78
2023/09/01 04:33:50;;;;;;;13.00;8.70;;;18.60;52.10;;;;;;6274897;22;20327;-78
2023/09/01 04:36:16;;;;;;;12.88;9.05;;;18.60;50.90;;;;;;6274701;22;19999;-78
2023/09/01 04:38:42;;;;;;;11.77;9.23;;;18.60;51.30;;;;;;6274471;22;20476;-78
2023/09/01 04:41:07;;;;;;;12.23;9.63;;;18.60;56.00;;;;;;6275080;22;20000;-78
2023/09/01 04:43:33;;;;;;;10.20;9.05;;;18.50;59.70;;;;;;6273075;22;20000;-79
2023/09/01 04:45:59;;;;;;;9.60;8.60;;;18.50;58.60;;;;;;6274985;22;20438;-78
2023/09/01 04:48:27;;;;;;;9.82;8.73;;;18.50;59.00;;;;;;6272918;22;19999;-78
2023/09/01 04:50:53;;;;;;;11.20;9.38;;;18.50;60.30;;;;;;6275052;22;20006;-79
2023/09/01 04:53:20;;;;;;;13.48;8.32;;;18.50;60.50;;;;;;6274736;22;20004;-78
2023/09/01 04:55:46;;;;;;;10.82;9.70;;;18.50;57.70;;;;;;6274721;22;20475;-78
2023/09/01 04:58:12;;;;;;;11.57;9.45;;;18.60;57.40;;;;;;6274727;22;20145;-79
2023/09/01 05:00:38;;;;;;;11.75;9.93;;;18.60;55.90;;;;;;6274707;22;19999;-79
2023/09/01 05:03:04;;;;;;;10.65;9.30;;;18.60;53.10;;;;;;6274698;22;20368;-78
2023/09/01 05:05:29;;;;;;;12.52;9.80;;;18.60;54.50;;;;;;6274627;22;20008;-78
2023/09/01 05:07:56;;;;;;;15.23;10.05;;;18.60;54.70;;;;;;6274671;22;20331;-78
2023/09/01 05:10:22;;;;;;;12.48;9.50;;;18.60;52.30;;;;;;6247229;22;20003;-78
2023/09/01 05:12:48;;;;;;;10.40;9.38;;;18.60;52.10;;;;;;6274525;22;19996;-78
2023/09/01 05:15:13;;;;;;;10.23;9.18;;;18.60;55.50;;;;;;6273348;22;20014;-79
2023/09/01 05:17:39;;;;;;;10.48;9.38;;;18.60;59.10;;;;;;6272238;22;20008;-78
2023/09/01 05:20:11;;;;;;;11.10;9.13;;;18.60;57.80;;;;;;6272827;22;20064;-78
2023/09/01 05:22:37;;;;;;;;;;;18.50;63.20;;;;;;6272869;22;20084;-78
2023/09/01 05:25:03;;;;;;;11.63;9.20;;;18.60;64.80;;;;;;6273352;22;19926;-78
2023/09/01 05:27:29;;;;;;;14.27;9.13;;;18.60;66.00;;;;;;6246516;22;20450;-78
2023/09/01 05:29:55;;;;;;;12.27;9.48;;;18.60;64.00;;;;;;6273885;22;20004;-78
2023/09/01 05:32:22;;;;;;;14.07;9.07;;;18.60;64.50;;;;;;6274001;22;20004;-79
2023/09/01 05:34:48;;;;;;;10.50;9.05;;;18.60;62.80;;;;;;6247172;22;20008;-78
2023/09/01 05:37:13;;;;;;;12.70;9.18;;;18.60;64.10;;;;;;6274223;22;20031;-79
2023/09/01 05:39:40;;;;;;;13.80;9.25;;;18.60;62.10;;;;;;6274428;22;20424;-78
2023/09/01 05:42:07;;;;;;;15.20;9.63;;;18.70;60.50;;;;;;6274201;22;20074;-78
2023/09/01 05:44:33;;;;;;;9.55;8.57;;;18.70;61.70;;;;;;6274605;22;19988;-78
2023/09/01 05:46:59;;;;;;;11.20;8.65;;;18.80;60.70;;;;;;6274419;22;20007;-78
2023/09/01 05:49:25;;;;;;;13.02;9.23;;;18.80;57.60;;;;;;6275469;22;20050;-79
2023/09/01 05:51:51;;;;;;;12.00;9.02;;;18.90;58.00;;;;;;6276463;22;20000;-79
2023/09/01 05:54:20;;;;;;;11.13;8.50;;;18.90;55.70;;;;;;6276375;22;20075;-78
2023/09/01 05:56:46;;;;;;;11.15;8.82;;;19.00;53.00;;;;;;6249176;22;19999;-78
2023/09/01 05:59:12;;;;;;;14.88;9.40;;;19.00;51.60;;;;;;6276140;22;20004;-78
2023/09/01 06:01:39;;;;;;;14.00;8.90;;;19.00;54.00;;;;;;6276534;22;20021;-78
2023/09/01 06:04:05;;;;;;;11.85;8.05;;;19.10;52.80;;;;;;6277711;22;20018;-78
2023/09/01 06:06:31;;;;;;;9.63;8.15;;;19.10;54.80;;;;;;6277792;22;20012;-78
2023/09/01 06:09:09;;;;;;;11.40;8.52;;;19.20;51.20;;;;;;6277745;22;20309;-78
2023/09/01 06:11:39;;;;;;;15.40;8.35;;;19.20;51.50;;;;;;6250267;22;20012;-78
2023/09/01 06:14:05;;;;;;;11.07;8.45;;;19.30;49.90;;;;;;6277461;22;20120;-78
2023/09/01 06:16:31;;;;;;;9.52;7.72;;;19.30;51.20;;;;;;6249983;22;20478;-78
2023/09/01 06:19:03;;;;;;;9.52;8.43;;;19.30;49.60;;;;;;6277195;22;20332;-78
2023/09/01 06:21:28;;;;;;;8.20;7.40;;;19.40;47.70;;;;;;6277193;22;20419;-78
2023/09/01 06:23:54;;;;;;;8.25;7.35;;;19.50;53.50;;;;;;6276716;22;20019;-78
2023/09/01 06:26:20;;;;;;;9.68;7.63;;;19.50;52.50;;;;;;6277258;22;20079;-78
2023/09/01 06:28:47;;;;;;;9.95;7.47;;;19.60;51.50;;;;;;6277719;22;20390;-78
2023/09/01 06:31:13;;;;;;;8.65;7.45;;;19.70;55.00;;;;;;6277677;22;20008;-78
2023/09/01 06:33:43;;;;;;;8.88;7.95;;;19.70;55.30;;;;;;6250398;22;20034;-78
2023/09/01 06:36:13;;;;;;;11.25;7.57;;;19.80;49.90;;;;;;6277759;22;20547;-78
2023/09/01 06:38:42;;;;;;;8.63;7.40;;;19.90;51.00;;;;;;6277662;22;20443;-78
2023/09/01 06:41:08;;;;;;;11.52;7.28;;;19.90;50.40;;;;;;6250299;22;20000;-78
2023/09/01 06:43:34;;;;;;;9.02;6.25;;;19.90;50.30;;;;;;6277469;22;19996;-78
2023/09/01 06:46:00;;;;;;;9.05;6.45;;;20.00;48.10;;;;;;6277464;22;20026;-78
2023/09/01 06:48:26;;;;;;;7.57;5.13;;;20.10;51.00;;;;;;6277546;22;20313;-78
2023/09/01 06:50:52;;;;;;;8.85;7.47;;;20.20;44.00;;;;;;6277552;22;20074;-78
2023/09/01 06:53:17;;;;;;;9.43;8.13;;;20.20;52.00;;;;;;6277521;22;20341;-78
2023/09/01 06:55:46;;;;;;;8.57;7.53;;;20.30;55.30;;;;;;6277304;22;20012;-78
2023/09/01 06:58:13;;;;;;;8.63;7.78;;;20.30;56.30;;;;;;6277500;22;20335;-78
2023/09/01 07:00:38;;;;;;;13.15;8.93;;;20.30;70.40;;;;;;6276956;22;20488;-78
2023/09/01 07:03:04;;;;;;;10.63;8.52;;;20.40;91.70;;;;;;6277208;22;20087;-78
2023/09/01 07:05:30;;;;;;;10.15;8.38;;;20.40;86.70;;;;;;6251922;22;20137;-78
2023/09/01 07:07:55;;;;;;;12.80;8.82;;;20.50;85.00;;;;;;6277145;22;19996;-78
2023/09/01 07:10:21;;;;;;;10.38;8.75;;;20.50;91.40;;;;;;6277520;22;20006;-78
2023/09/01 07:12:47;;;;;;;10.05;8.90;;;20.50;91.10;;;;;;6276865;22;19996;-78
2023/09/01 07:15:13;;;;;;;9.30;8.35;;;20.60;90.20;;;;;;6275718;22;20493;-76
2023/09/01 07:17:39;;;;;;;9.65;8.60;;;20.60;93.80;;;;;;6275841;22;20000;-75
2023/09/01 07:20:05;;;;;;;8.88;7.97;;;20.60;90.80;;;;;;6275784;22;20000;-76
2023/09/01 07:22:31;;;;;;;9.48;7.97;;;20.70;92.10;;;;;;6275330;22;20049;-76
2023/09/01 07:24:57;;;;;;;10.98;8.65;;;20.70;90.10;;;;;;6274128;22;19999;-76
2023/09/01 07:27:22;;;;;;;14.98;8.18;;;20.70;77.50;;;;;;6275369;22;20027;-76
2023/09/01 07:29:48;;;;;;;9.00;8.10;;;20.70;69.80;;;;;;6275374;22;20184;-76
2023/09/01 07:32:17;;;;;;;10.25;8.73;;;20.70;69.40;;;;;;6273292;22;20000;-76
2023/09/01 07:34:46;;;;;;;9.18;8.38;;;20.70;62.90;;;;;;6272841;22;20045;-76
2023/09/01 07:37:12;;;;;;;10.40;9.20;;;20.70;67.90;;;;;;6270889;22;20325;-76
2023/09/01 07:39:38;;;;;;;10.60;8.20;;;20.80;75.70;;;;;;6274228;22;20075;-76
2023/09/01 07:42:04;;;;;;;10.90;8.38;;;20.80;55.20;;;;;;6274942;22;20000;-76
2023/09/01 07:44:30;;;;;;;9.50;8.48;;;20.90;50.20;;;;;;6275675;22;20003;-76
2023/09/01 07:46:56;;;;;;;11.82;9.63;;;20.90;43.00;;;;;;6275398;22;20008;-75
2023/09/01 07:49:22;;;;;;;10.07;8.80;;;20.90;45.60;;;;;;6275575;22;20012;-76
2023/09/01 07:51:48;;;;;;;8.38;7.57;;;21.00;48.60;;;;;;6275208;22;20004;-76
2023/09/01 07:54:14;;;;;;;21.98;10.10;;;21.00;48.50;;;;;;6275197;22;20010;-76
2023/09/01 07:56:40;;;;;;;10.65;9.57;;;21.10;30.20;;;;;;6275466;22;20007;-76
2023/09/01 07:59:06;;;;;;;14.63;9.75;;;21.00;26.00;;;;;;6275133;22;20424;-76
2023/09/01 08:01:31;;;;;;;16.90;9.63;;;21.10;39.20;;;;;;6273708;22;20003;-76
2023/09/01 08:04:00;;;;;;;10.90;9.65;;;21.10;41.40;;;;;;6275117;22;20431;-76
2023/09/01 08:06:29;;;;;;;14.32;10.65;;;21.10;35.90;;;;;;6273495;22;20023;-76
2023/09/01 08:08:56;;;;;;;15.27;9.38;;;21.20;40.80;;;;;;6275027;22;20007;-76
2023/09/01 08:11:21;;;;;;;11.45;9.30;;;21.20;47.10;;;;;;6275191;22;20003;-76
2023/09/01 08:13:47;;;;;;;12.55;9.18;;;21.30;49.60;;;;;;6273336;22;20034;-76
2023/09/01 08:16:15;;;;;;;11.18;10.13;;;21.30;25.60;;;;;;6274870;22;20004;-76
2023/09/01 08:18:41;;;;;;;13.45;9.10;;;21.30;21.10;;;;;;6274977;22;20075;-76
2023/09/01 08:21:07;;;;;;;11.43;9.38;;;21.40;33.90;;;;;;6275160;22;20030;-76
2023/09/01 08:23:33;;;;;;;10.15;8.93;;;21.40;37.80;;;;;;6273367;22;20008;-76
2023/09/01 08:25:58;;;;;;;11.75;8.90;;;21.50;18.00;;;;;;6274836;22;20004;-76
2023/09/01 08:28:24;;;;;;;12.68;9.88;;;21.50;10.90;;;;;;6275093;22;20006;-76
2023/09/01 08:30:50;;;;;;;16.60;9.32;;;21.50;1.00;;;;;;6274849;22;19999;-76
2023/09/01 08:33:17;;;;;;;13.02;8.05;;;21.50;4.50;;;;;;6273368;22;20065;-75
2023/09/01 08:35:43;;;;;;;11.75;7.13;;;21.70;11.30;;;;;;6274637;22;20000;-76
2023/09/01 08:38:09;;;;;;;9.50;8.07;;;21.70;1.00;;;;;;6275060;22;20006;-76
2023/09/01 08:40:34;;;;;;;13.20;9.35;;;21.80;14.00;;;;;;6274851;22;19995;-75
2023/09/01 08:43:03;;;;;;;10.82;9.70;;;21.80;2.30;;;;;;6273018;22;20446;-76
2023/09/01 08:45:30;;;;;;;11.93;9.10;;;21.80;6.10;;;;;;6274850;22;20000;-76
2023/09/01 08:47:56;;;;;;;11.57;8.85;;;21.80;6.20;;;;;;6273273;22;20027;-76
2023/09/01 08:50:22;;;;;;;9.52;8.73;;;21.90;1.00;;;;;;6274581;22;20431;-75
2023/09/01 08:52:48;;;;;;;10.20;9.25;;;21.90;1.00;;;;;;6274879;22;19999;-75
2023/09/01 08:55:16;;;;;;;10.93;9.60;;;21.90;1.00;;;;;;6274948;22;20027;-76
2023/09/01 08:57:42;;;;;;;13.95;11.55;;;22.00;1.00;;;;;;6274621;22;20439;-76
2023/09/01 09:00:09;;;;;;;12.65;10.23;;;21.90;1.00;;;;;;6273190;22;20428;-76
2023/09/01 09:02:42;;;;;;;15.88;10.63;;;21.90;1.00;;;;;;6274249;22;20071;-76
2023/09/01 09:05:13;;;;;;;13.68;10.30;;;22.00;1.00;;;;;;6274349;22;20006;-76
2023/09/01 09:07:39;;;;;;;11.77;10.60;;;22.10;1.00;;;;;;6274734;22;20007;-76
2023/09/01 09:10:06;;;;;;;16.10;11.52;;;22.30;1.00;;;;;;6274422;22;20050;-76
2023/09/01 09:12:41;;;;;;;15.13;11.18;;;22.40;1.00;;;;;;6274584;22;20008;-76
2023/09/01 09:15:08;;;;;;;13.65;11.45;;;22.50;1.00;;;;;;6274477;22;20008;-76
2023/09/01 09:17:45;;;;;;;12.45;10.60;;;22.40;1.00;;;;;;6274662;22;20000;-76
2023/09/01 09:20:13;;;;;;;11.70;9.25;;;22.50;1.00;;;;;;6274627;22;20000;-76
2023/09/01 09:22:53;;;;;;;16.17;10.82;;;22.60;1.00;;;;;;6247093;22;20008;-76
2023/09/01 09:25:35;;;;;;;10.88;9.55;;;22.80;1.00;;;;;;6274656;22;20046;-76
2023/09/01 09:28:14;;;;;;;13.45;11.32;;;23.00;1.00;;;;;;6274594;22;20049;-76
2023/09/01 09:30:50;;;;;;;14.38;12.70;;;23.10;1.00;;;;;;6274510;22;20031;-76
2023/09/01 09:33:29;;;;;;;19.48;13.70;;;23.10;1.00;;;;;;6247071;22;20007;-76
2023/09/01 09:35:55;;;;;;;17.38;14.13;;;23.00;1.00;;;;;;6247226;22;20008;-76
2023/09/01 09:38:21;;;;;;;18.83;12.55;;;22.90;1.00;;;;;;6274168;22;20000;-76
2023/09/01 09:40:57;;;;;;;15.05;12.90;;;22.80;1.00;;;;;;6274667;22;20004;-75
2023/09/01 09:43:23;;;;;;;17.77;15.13;;;22.80;1.00;;;;;;6274547;22;19995;-75
2023/09/01 09:45:52;;;;;;;22.20;12.93;;;22.80;1.00;;;;;;6274255;22;20101;-75
2023/09/01 09:48:19;;;;;;;16.08;14.23;;;22.70;1.00;;;;;;6274562;22;20004;-75
2023/09/01 09:50:52;;;;;;;13.90;12.27;;;22.70;1.00;;;;;;6274181;22;20074;-75
2023/09/01 09:53:23;;;;;;;17.75;12.20;;;22.70;1.00;;;;;;6247199;22;20057;-75
2023/09/01 09:55:53;;;;;;;15.23;12.10;;;22.70;1.00;;;;;;6247377;22;20011;-75
2023/09/01 09:58:29;;;;;;;20.13;12.77;;;22.70;1.00;;;;;;6247192;22;20008;-75
2023/09/01 10:01:13;;;;;;;16.85;13.35;;;22.90;1.00;;;;;;6274492;22;20082;-75
2023/09/01 10:03:40;;;;;;;16.33;12.85;;;23.00;1.00;;;;;;6247081;22;20003;-75
2023/09/01 10:06:07;;;;;;;17.50;13.65;;;23.10;1.00;;;;;;6274287;22;20065;-75
2023/09/01 10:08:33;;;;;;;18.00;12.00;;;23.20;1.00;;;;;;6274240;22;20000;-77
2023/09/01 10:11:01;;;;;;;17.98;11.32;;;23.30;1.00;;;;;;6274458;22;20003;-77
2023/09/01 10:13:28;;;;;;;15.00;11.60;;;23.30;1.00;;;;;;6246546;22;20357;-77
2023/09/01 10:15:55;;;;;;;14.88;10.82;;;23.40;1.00;;;;;;6274239;22;20420;-78
2023/09/01 10:18:21;;;;;;;19.15;12.40;;;23.50;1.00;;;;;;6274227;22;20008;-77
2023/09/01 10:20:47;;;;;;;16.80;11.30;;;23.70;1.00;;;;;;6274458;22;20489;-77
2023/09/01 10:23:13;;;;;;;18.10;12.20;;;23.80;1.00;;;;;;6273970;22;20031;-77
2023/09/01 10:25:39;;;;;;;14.82;12.75;;;23.80;1.00;;;;;;6247360;22;20082;-77
2023/09/01 10:28:10;;;;;;;14.82;11.45;;;23.90;1.00;;;;;;6274203;22;20002;-77
2023/09/01 10:30:43;;;;;;;13.68;11.35;;;24.00;1.00;;;;;;6274472;22;20002;-78
2023/09/01 10:33:12;;;;;;;11.55;10.07;;;24.10;1.00;;;;;;6274181;22;19996;-77
2023/09/01 10:35:44;;;;;;;18.83;9.80;;;24.20;1.00;;;;;;6247636;22;20000;-77
2023/09/01 10:38:18;;;;;;;12.65;9.27;;;24.30;1.00;;;;;;6275928;22;20343;-77
2023/09/01 10:40:50;;;;;;;17.42;10.25;;;24.40;99.90;;;;;;6275744;22;20030;-78
2023/09/01 10:43:31;;;;;;;10.30;9.15;;;24.40;99.90;;;;;;6275790;22;20046;-77
2023/09/01 10:46:12;;;;;;;10.05;8.07;;;24.20;99.90;;;;;;6248630;22;20086;-78
2023/09/01 10:48:47;;;;;;;8.10;7.30;;;24.30;99.90;;;;;;6248896;22;20012;-78
2023/09/01 10:51:19;;;;;;;8.05;6.28;;;24.40;99.90;;;;;;6249028;22;20011;-77
2023/09/01 10:53:55;;;;;;;10.90;7.85;;;24.50;99.90;;;;;;6248986;22;20470;-77
2023/09/01 10:56:22;;;;;;;9.95;8.50;;;24.60;99.90;;;;;;6248749;22;20003;-78
2023/09/01 10:58:52;;;;;;;8.80;7.13;;;24.60;99.90;;;;;;6275920;22;20049;-77
2023/09/01 11:01:38;;;;;;;10.95;7.95;;;24.70;99.90;;;;;;6248687;22;20087;-77
2023/09/01 11:04:30;;;;;;;15.20;9.25;;;24.70;99.90;;;;;;6275977;22;20022;-77
2023/09/01 11:06:59;;;;;;;9.80;7.15;;;24.80;99.90;;;;;;6262809;22;20107;-78
2023/09/01 11:09:34;;;;;;;17.02;7.03;;;25.00;99.90;;;;;;6276023;22;20014;-78
2023/09/01 11:12:04;;;;;;;9.82;8.52;;;25.00;99.90;;;;;;6275798;22;20000;-77
2023/09/01 11:14:35;;;;;;;8.80;7.68;;;24.80;99.90;;;;;;6275683;22;20034;-77
2023/09/01 11:17:03;;;;;;;10.13;7.88;;;24.80;99.90;;;;;;6275872;22;20003;-77
2023/09/01 11:19:45;;;;;;;10.35;7.35;;;24.80;99.90;;;;;;6275992;22;20022;-77
2023/09/01 11:22:11;;;;;;;7.93;6.85;;;24.80;99.90;;;;;;6273984;22;20010;-77
2023/09/01 11:24:37;;;;;;;9.80;8.65;;;25.00;99.90;;;;;;6275493;22;20384;-77
2023/09/01 11:27:03;;;;;;;9.60;7.60;;;24.90;99.90;;;;;;6275831;22;20339;-78
2023/09/01 11:29:29;;;;;;;12.20;7.80;;;25.00;99.90;;;;;;6275551;22;20305;-77
2023/09/01 11:31:58;;;;;;;14.60;7.60;;;24.90;99.90;;;;;;6273771;22;20087;-77
2023/09/01 11:34:24;;;;;;;12.90;6.68;;;24.80;99.90;;;;;;6275814;22;20000;-77
2023/09/01 11:36:50;;;;;;;9.50;6.40;;;24.80;99.90;;;;;;6275486;22;20039;-77
2023/09/01 11:39:16;;;;;;;10.27;7.60;;;24.80;99.90;;;;;;6275443;22;20050;-77
2023/09/01 11:41:43;;;;;;;14.18;8.13;;;24.80;99.90;;;;;;6275513;22;20344;-78
2023/09/01 11:44:09;;;;;;;9.95;6.97;;;24.80;99.90;;;;;;6275445;22;19995;-78
2023/09/01 11:46:37;;;;;;;17.35;7.65;;;24.80;99.90;;;;;;6273834;22;20058;-78
2023/09/01 11:49:04;;;;;;;11.43;6.78;;;24.80;99.90;;;;;;6275352;22;20006;-78
2023/09/01 11:51:36;;;;;;;9.27;7.65;;;24.70;99.90;;;;;;6275330;22;20008;-77
2023/09/01 11:54:03;;;;;;;8.80;7.97;;;24.60;99.90;;;;;;6275508;22;20003;-77
2023/09/01 11:56:29;;;;;;;7.50;5.85;;;24.60;99.90;;;;;;6275090;22;19999;-77
2023/09/01 11:58:56;;;;;;;7.20;6.40;;;24.80;99.90;;;;;;6273800;22;20074;-77
2023/09/01 12:01:43;;;;;;;5.68;5.05;;;25.00;99.90;;;;;;6273594;22;20000;-78
2023/09/01 12:04:09;;;;;;;5.15;4.57;;;25.10;1.00;;;;;;6273850;22;20423;-78
2023/09/01 12:06:46;;;;;;;7.30;4.43;;;25.10;1.00;;;;;;6275083;22;20343;-77
2023/09/01 12:09:21;;;;;;;8.35;4.85;;;25.30;99.90;;;;;;6275137;22;20010;-77
2023/09/01 12:11:55;;;;;;;6.53;4.05;;;25.50;99.90;;;;;;6247880;22;20012;-77
2023/09/01 12:14:25;;;;;;;7.57;4.80;;;25.60;99.90;;;;;;6275036;22;19999;-77
2023/09/01 12:16:53;;;;;;;8.73;4.00;;;25.70;99.90;;;;;;6247898;22;20053;-77
2023/09/01 12:19:24;;;;;;;5.53;3.55;;;25.80;99.90;;;;;;6275140;22;19995;-78
2023/09/01 12:21:56;;;;;;;4.47;3.40;;;25.70;99.90;;;;;;6274871;22;20075;-78
2023/09/01 12:24:21;;;;;;;;;;;25.60;99.90;;;;;;6248259;22;20459;-78
2023/09/01 12:26:47;;;;;;;4.88;3.20;;;25.60;99.90;;;;;;6274946;22;19899;-77
2023/09/01 12:29:13;;;;;;;6.38;3.85;;;25.70;99.90;;;;;;6274764;22;20004;-77
2023/09/01 12:31:39;;;;;;;6.18;3.30;;;25.80;99.90;;;;;;6247866;22;20014;-77
2023/09/01 12:34:05;;;;;;;11.88;2.95;;;25.90;99.90;;;;;;6274923;22;20411;-78
2023/09/01 12:36:30;;;;;;;6.35;3.10;;;25.90;99.90;;;;;;6274687;22;20000;-77
2023/09/01 12:38:56;;;;;;;5.85;2.90;;;25.90;99.90;;;;;;6274893;22;20070;-78
2023/09/01 12:41:22;;;;;;;4.40;2.50;;;25.90;99.90;;;;;;6274437;22;20026;-78
2023/09/01 12:43:48;;;;;;;8.10;2.72;;;25.90;42.40;;;;;;6274922;22;20049;-78
2023/09/01 12:46:14;;;;;;;6.72;3.35;;;25.90;42.80;;;;;;6247515;22;20011;-78